createdAt,value
2023-02-06T00:01:24.234Z,1.61
2023-02-06T00:03:51.277Z,1.54
2023-02-06T00:06:18.362Z,1.56
2023-02-06T00:08:45.543Z,1.53
2023-02-06T00:11:16.701Z,1.50
2023-02-06T00:13:45.331Z,1.43
2023-02-06T00:16:25.703Z,1.48
2023-02-06T00:18:54.090Z,1.53
2023-02-06T00:21:24.462Z,1.59
2023-02-06T00:23:54.026Z,1.58
2023-02-06T00:26:21.049Z,1.53
2023-02-06T00:28:48.160Z,1.49
2023-02-06T00:31:15.797Z,1.44
2023-02-06T00:33:42.825Z,1.39
2023-02-06T00:36:10.106Z,1.35
2023-02-06T00:38:38.049Z,1.31
2023-02-06T00:41:05.513Z,1.32
2023-02-06T00:43:32.797Z,1.38
2023-02-06T00:45:59.611Z,1.39
2023-02-06T00:48:26.525Z,1.41
2023-02-06T00:50:54.171Z,1.39
2023-02-06T00:53:21.831Z,1.41
2023-02-06T00:55:48.660Z,1.39
2023-02-06T00:58:15.601Z,1.39
2023-02-06T01:00:42.397Z,1.28
2023-02-06T01:03:09.312Z,1.32
2023-02-06T01:05:36.505Z,1.25
2023-02-06T01:08:04.599Z,1.23
2023-02-06T01:10:32.470Z,1.22
2023-02-06T01:12:59.379Z,1.18
2023-02-06T01:15:26.199Z,1.19
2023-02-06T01:17:53.020Z,1.18
2023-02-06T01:20:21.489Z,1.19
2023-02-06T01:22:48.286Z,1.20
2023-02-06T01:25:15.281Z,1.22
2023-02-06T01:27:42.087Z,1.30
2023-02-06T01:30:11.094Z,1.38
2023-02-06T01:32:40.011Z,1.46
2023-02-06T01:35:09.425Z,1.59
2023-02-06T01:37:37.923Z,1.69
2023-02-06T01:40:07.645Z,1.79
2023-02-06T01:42:37.324Z,1.90
2023-02-06T01:45:45.269Z,2.03
2023-02-06T01:48:19.196Z,2.09
2023-02-06T01:50:51.808Z,2.17
2023-02-06T01:53:21.105Z,2.26
2023-02-06T01:55:50.647Z,2.31
2023-02-06T01:58:26.529Z,2.27
2023-02-06T02:00:53.750Z,2.32
2023-02-06T02:03:21.100Z,2.25
2023-02-06T02:05:50.562Z,2.38
2023-02-06T02:08:32.289Z,2.39
2023-02-06T02:11:00.454Z,2.31
2023-02-06T02:13:27.317Z,2.29
2023-02-06T02:16:30.817Z,2.19
2023-02-06T02:19:23.589Z,2.36
2023-02-06T02:22:18.448Z,2.26
2023-02-06T02:25:32.018Z,2.29
2023-02-06T02:28:42.584Z,2.24
2023-02-06T02:31:36.590Z,2.20
2023-02-06T02:34:44.868Z,2.15
2023-02-06T02:37:46.567Z,2.10
2023-02-06T02:40:24.349Z,2.01
2023-02-06T02:43:44.942Z,1.96
2023-02-06T02:46:35.124Z,1.96
2023-02-06T02:49:08.968Z,1.91
2023-02-06T02:51:38.351Z,1.88
2023-02-06T02:54:05.475Z,1.86
2023-02-06T02:56:33.572Z,1.79
2023-02-06T02:59:25.536Z,1.72
2023-02-06T03:02:13.154Z,1.67
2023-02-06T03:04:56.685Z,1.58
2023-02-06T03:08:07.486Z,1.54
2023-02-06T03:10:42.449Z,1.42
2023-02-06T03:13:24.745Z,1.35
2023-02-06T03:16:14.136Z,1.18
2023-02-06T03:18:48.489Z,1.16
2023-02-06T03:21:19.905Z,1.06
2023-02-06T03:23:50.365Z,0.96
2023-02-06T03:26:21.026Z,0.87
2023-02-06T03:28:52.930Z,0.77
2023-02-06T03:31:27.876Z,0.75
2023-02-06T03:34:33.869Z,0.70
2023-02-06T03:37:00.764Z,0.70
2023-02-06T03:39:27.836Z,0.64
2023-02-06T03:41:56.960Z,0.58
2023-02-06T03:44:30.716Z,0.57
2023-02-06T03:46:59.750Z,0.53
2023-02-06T03:49:29.903Z,0.50
2023-02-06T03:52:13.989Z,0.44
2023-02-06T03:54:48.362Z,0.38
2023-02-06T03:57:19.343Z,0.36
2023-02-06T03:59:46.984Z,0.32
2023-02-06T04:02:15.098Z,0.30
2023-02-06T04:04:43.134Z,0.26
2023-02-06T04:07:19.474Z,0.24
2023-02-06T04:09:46.460Z,0.15
2023-02-06T04:12:13.335Z,0.10
2023-02-06T04:14:40.149Z,0.10
2023-02-06T04:17:07.693Z,0.09
2023-02-06T04:19:35.325Z,0.04
2023-02-06T04:22:02.739Z,-0.03
2023-02-06T04:24:31.009Z,-0.08
2023-02-06T04:26:58.513Z,-0.11
2023-02-06T04:29:26.071Z,-0.15
2023-02-06T04:31:52.877Z,-0.15
2023-02-06T04:34:19.783Z,-0.16
2023-02-06T04:36:46.635Z,-0.13
2023-02-06T04:39:13.540Z,-0.15
2023-02-06T04:41:40.405Z,-0.23
2023-02-06T04:44:07.227Z,-0.22
2023-02-06T04:46:34.042Z,-0.23
2023-02-06T04:49:00.837Z,-0.26
2023-02-06T04:51:27.749Z,-0.33
2023-02-06T04:53:54.643Z,-0.31
2023-02-06T04:56:21.501Z,-0.34
2023-02-06T04:58:48.375Z,-0.36
2023-02-06T05:01:16.969Z,-0.39
2023-02-06T05:03:44.089Z,-0.39
2023-02-06T05:06:11.298Z,-0.39
2023-02-06T05:08:38.553Z,-0.43
2023-02-06T05:11:06.130Z,-0.49
2023-02-06T05:13:34.357Z,-0.56
2023-02-06T05:16:15.395Z,-0.60
2023-02-06T05:18:44.630Z,-0.64
2023-02-06T05:21:13.169Z,-0.74
2023-02-06T05:23:40.337Z,-0.82
2023-02-06T05:26:07.168Z,-0.86
2023-02-06T05:28:34.026Z,-0.91
2023-02-06T05:31:02.565Z,-0.94
2023-02-06T05:33:29.904Z,-0.95
2023-02-06T05:36:07.737Z,-0.98
2023-02-06T05:38:34.661Z,-1.02
2023-02-06T05:41:01.565Z,-1.02
2023-02-06T05:43:28.411Z,-1.03
2023-02-06T05:45:55.281Z,-0.95
2023-02-06T05:48:22.103Z,-0.97
2023-02-06T05:50:49.841Z,-0.94
2023-02-06T05:53:17.866Z,-0.91
2023-02-06T05:55:44.712Z,-0.95
2023-02-06T05:58:11.642Z,-1.01
2023-02-06T06:00:38.591Z,-1.11
2023-02-06T06:03:05.459Z,-1.13
2023-02-06T06:05:32.340Z,-1.18
2023-02-06T06:07:59.171Z,-1.21
2023-02-06T06:10:26.007Z,-1.30
2023-02-06T06:12:52.825Z,-1.33
2023-02-06T06:15:19.728Z,-1.47
2023-02-06T06:17:46.498Z,-1.44
2023-02-06T06:20:13.536Z,-1.41
2023-02-06T06:22:40.787Z,-1.40
2023-02-06T06:25:08.061Z,-1.37
2023-02-06T06:27:34.860Z,-1.30
2023-02-06T06:30:01.773Z,-1.29
2023-02-06T06:32:28.566Z,-1.27
2023-02-06T06:34:55.408Z,-1.27
2023-02-06T06:37:22.196Z,-1.24
2023-02-06T06:39:49.030Z,-1.31
2023-02-06T06:42:15.847Z,-1.23
2023-02-06T06:44:42.655Z,-1.19
2023-02-06T06:47:10.747Z,-1.17
2023-02-06T06:49:37.723Z,-1.13
2023-02-06T06:52:08.873Z,-1.03
2023-02-06T06:54:40.351Z,-0.98
2023-02-06T06:57:07.187Z,-0.83
2023-02-06T06:59:33.975Z,-0.69
2023-02-06T07:02:00.807Z,-0.51
2023-02-06T07:04:31.306Z,-0.35
2023-02-06T07:06:58.249Z,-0.17
2023-02-06T07:09:25.434Z,-0.10
2023-02-06T07:11:52.226Z,-0.03
2023-02-06T07:14:19.233Z,0.13
2023-02-06T07:16:46.100Z,0.17
2023-02-06T07:19:12.968Z,0.07
2023-02-06T07:21:39.971Z,0.06
2023-02-06T07:24:07.093Z,0.11
2023-02-06T07:26:34.244Z,0.15
2023-02-06T07:29:01.158Z,0.38
2023-02-06T07:31:28.013Z,0.59
2023-02-06T07:33:54.905Z,0.84
2023-02-06T07:36:21.739Z,1.14
2023-02-06T07:38:48.973Z,1.52
2023-02-06T07:41:17.827Z,1.74
2023-02-06T07:43:44.744Z,1.91
2023-02-06T07:46:11.685Z,1.89
2023-02-06T07:48:38.610Z,2.05
2023-02-06T07:51:09.484Z,2.32
2023-02-06T07:53:37.345Z,2.58
2023-02-06T07:56:16.950Z,2.92
2023-02-06T07:58:43.975Z,2.84
2023-02-06T08:01:11.279Z,3.05
2023-02-06T08:03:38.333Z,3.14
2023-02-06T08:06:24.935Z,3.42
2023-02-06T08:08:55.330Z,3.47
2023-02-06T08:11:25.200Z,3.61
2023-02-06T08:13:52.044Z,3.81
2023-02-06T08:16:22.082Z,4.18
2023-02-06T08:18:49.187Z,4.93
2023-02-06T08:21:20.730Z,5.62
2023-02-06T08:23:53.884Z,6.18
2023-02-06T08:26:21.907Z,6.36
2023-02-06T08:28:50.437Z,6.49
2023-02-06T08:31:33.290Z,6.68
2023-02-06T08:34:01.137Z,7.25
2023-02-06T08:36:32.593Z,7.30
2023-02-06T08:39:00.760Z,7.12
2023-02-06T08:41:32.778Z,7.72
2023-02-06T08:44:01.863Z,7.35
2023-02-06T08:46:32.103Z,6.92
2023-02-06T08:49:07.186Z,6.83
2023-02-06T08:51:35.533Z,7.19
2023-02-06T08:54:06.875Z,7.47
2023-02-06T08:56:35.693Z,7.23
2023-02-06T08:59:03.429Z,7.81
2023-02-06T09:01:33.509Z,7.63
2023-02-06T09:04:04.815Z,8.13
2023-02-06T09:06:31.902Z,7.72
2023-02-06T09:08:59.022Z,8.60
2023-02-06T09:11:27.142Z,8.73
2023-02-06T09:13:59.826Z,9.19
2023-02-06T09:16:29.134Z,9.16
2023-02-06T09:19:01.246Z,8.78
2023-02-06T09:21:32.027Z,9.71
2023-02-06T09:24:02.348Z,9.87
2023-02-06T09:26:38.895Z,10.00
2023-02-06T09:29:09.804Z,9.99
2023-02-06T09:31:39.526Z,9.61
2023-02-06T09:34:07.577Z,9.68
2023-02-06T09:36:35.146Z,8.95
2023-02-06T09:39:06.191Z,8.16
2023-02-06T09:41:43.018Z,8.41
2023-02-06T09:44:24.742Z,7.37
2023-02-06T09:46:57.604Z,7.90
2023-02-06T09:49:37.616Z,7.76
2023-02-06T09:52:23.236Z,8.26
2023-02-06T09:54:55.851Z,8.93
2023-02-06T09:57:37.628Z,9.28
2023-02-06T10:00:37.928Z,9.36
2023-02-06T10:03:37.468Z,9.27
2023-02-06T10:06:22.853Z,9.11
2023-02-06T10:08:56.943Z,8.64
2023-02-06T10:11:29.522Z,8.01
2023-02-06T10:14:02.042Z,7.75
2023-02-06T10:16:55.739Z,7.70
2023-02-06T10:19:46.623Z,7.66
2023-02-06T10:22:21.184Z,7.64
2023-02-06T10:25:03.069Z,7.25
2023-02-06T10:27:32.874Z,6.96
2023-02-06T10:30:01.477Z,6.67
2023-02-06T10:32:40.208Z,6.59
2023-02-06T10:35:29.789Z,6.43
2023-02-06T10:38:18.205Z,6.00
2023-02-06T10:41:04.816Z,5.87
2023-02-06T10:43:55.262Z,5.93
2023-02-06T10:46:41.518Z,5.64
2023-02-06T10:49:38.374Z,5.65
2023-02-06T10:52:27.563Z,5.85
2023-02-06T10:54:59.608Z,5.53
2023-02-06T10:57:30.924Z,5.35
2023-02-06T11:00:04.270Z,5.17
2023-02-06T11:02:44.176Z,5.27
2023-02-06T11:05:19.266Z,5.10
2023-02-06T11:07:51.575Z,5.08
2023-02-06T11:10:23.766Z,5.02
2023-02-06T11:13:12.648Z,4.47
2023-02-06T11:15:54.822Z,4.65
2023-02-06T11:18:28.947Z,4.77
2023-02-06T11:20:56.063Z,4.72
2023-02-06T11:23:27.688Z,4.73
2023-02-06T11:26:14.395Z,4.78
2023-02-06T11:29:17.947Z,4.41
2023-02-06T11:31:51.458Z,4.50
2023-02-06T11:35:05.075Z,4.56
2023-02-06T11:37:39.535Z,4.69
2023-02-06T11:40:18.361Z,4.70
2023-02-06T11:42:48.159Z,4.75
2023-02-06T11:45:24.986Z,4.80
2023-02-06T11:47:52.349Z,4.65
2023-02-06T11:50:37.001Z,4.53
2023-02-06T11:53:17.114Z,4.40
2023-02-06T11:55:46.870Z,4.43
2023-02-06T11:58:13.600Z,4.47
2023-02-06T12:00:52.571Z,4.63
2023-02-06T12:03:27.921Z,4.72
2023-02-06T12:05:59.579Z,4.69
2023-02-06T12:08:47.292Z,4.43
2023-02-06T12:11:24.759Z,4.57
2023-02-06T12:14:37.504Z,4.58
2023-02-06T12:17:16.797Z,4.58
2023-02-06T12:20:05.316Z,4.68
2023-02-06T12:22:40.347Z,4.67
2023-02-06T12:25:27.449Z,4.67
2023-02-06T12:28:14.422Z,4.51
2023-02-06T12:30:55.644Z,4.50
2023-02-06T12:33:34.968Z,4.64
2023-02-06T12:36:27.869Z,4.58
2023-02-06T12:39:17.541Z,4.60
2023-02-06T12:42:03.033Z,4.75
2023-02-06T12:44:51.078Z,4.70
2023-02-06T12:47:29.370Z,4.85
2023-02-06T12:50:25.232Z,4.90
2023-02-06T12:53:02.814Z,5.00
2023-02-06T12:55:37.094Z,4.98
2023-02-06T12:58:04.750Z,4.91
2023-02-06T13:00:49.557Z,4.91
2023-02-06T13:03:31.327Z,4.84
2023-02-06T13:06:23.081Z,4.89
2023-02-06T13:09:04.136Z,4.83
2023-02-06T13:11:40.529Z,4.78
2023-02-06T13:14:19.861Z,4.80
2023-02-06T13:17:36.498Z,4.78
2023-02-06T13:20:18.576Z,5.02
2023-02-06T13:23:11.411Z,5.19
2023-02-06T13:25:38.398Z,5.25
2023-02-06T13:28:23.335Z,5.28
2023-02-06T13:31:09.220Z,5.16
2023-02-06T13:33:55.774Z,5.44
2023-02-06T13:36:49.053Z,5.60
2023-02-06T13:39:29.795Z,5.71
2023-02-06T13:42:01.032Z,5.67
2023-02-06T13:44:38.348Z,5.98
2023-02-06T13:47:38.407Z,6.19
2023-02-06T13:50:07.143Z,6.94
2023-02-06T13:53:18.562Z,7.90
2023-02-06T13:55:48.605Z,7.79
2023-02-06T13:58:20.880Z,8.26
2023-02-06T14:00:51.244Z,9.05
2023-02-06T14:03:32.684Z,9.29
2023-02-06T14:06:11.383Z,8.52
2023-02-06T14:09:10.447Z,8.38
2023-02-06T14:12:34.928Z,10.35
2023-02-06T14:15:08.586Z,12.37
2023-02-06T14:18:07.193Z,15.26
2023-02-06T14:20:49.830Z,16.55
2023-02-06T14:23:47.225Z,16.24
2023-02-06T14:27:00.838Z,18.65
2023-02-06T14:30:04.969Z,19.08
2023-02-06T14:32:56.404Z,15.37
2023-02-06T14:35:55.224Z,13.56
2023-02-06T14:38:55.731Z,11.78
2023-02-06T14:41:22.986Z,11.04
2023-02-06T14:43:51.052Z,10.10
2023-02-06T14:46:19.560Z,10.11
2023-02-06T14:48:58.555Z,9.70
2023-02-06T14:51:38.904Z,8.98
2023-02-06T14:54:27.664Z,8.24
2023-02-06T14:57:03.460Z,7.81
2023-02-06T14:59:31.481Z,7.21
2023-02-06T15:01:59.889Z,6.88
2023-02-06T15:04:30.784Z,6.67
2023-02-06T15:07:02.613Z,6.40
2023-02-06T15:09:37.820Z,6.06
2023-02-06T15:12:24.835Z,5.68
2023-02-06T15:14:55.034Z,5.59
2023-02-06T15:17:26.391Z,5.24
2023-02-06T15:19:53.354Z,5.10
2023-02-06T15:22:29.519Z,5.05
2023-02-06T15:25:15.008Z,4.81
2023-02-06T15:27:41.909Z,4.80
2023-02-06T15:30:24.003Z,4.75
2023-02-06T15:32:54.075Z,4.52
2023-02-06T15:35:32.308Z,4.66
2023-02-06T15:38:25.044Z,4.67
2023-02-06T15:40:58.063Z,4.50
2023-02-06T15:43:26.928Z,4.39
2023-02-06T15:45:57.946Z,4.30
2023-02-06T15:48:51.395Z,4.39
2023-02-06T15:51:26.605Z,4.36
2023-02-06T15:54:20.812Z,4.12
2023-02-06T15:57:02.901Z,4.19
2023-02-06T15:59:33.312Z,4.23
2023-02-06T16:02:01.074Z,4.23
2023-02-06T16:04:35.660Z,4.25
2023-02-06T16:07:07.409Z,4.29
2023-02-06T16:10:04.550Z,4.31
2023-02-06T16:12:41.728Z,4.31
2023-02-06T16:15:35.184Z,4.29
2023-02-06T16:18:23.354Z,4.19
2023-02-06T16:20:50.796Z,4.23
2023-02-06T16:23:44.618Z,4.18
2023-02-06T16:26:19.955Z,4.13
2023-02-06T16:29:09.762Z,4.21
2023-02-06T16:31:43.216Z,4.11
2023-02-06T16:34:44.085Z,4.17
2023-02-06T16:37:22.137Z,4.21
2023-02-06T16:39:49.697Z,4.19
2023-02-06T16:42:27.149Z,4.12
2023-02-06T16:44:59.516Z,4.10
2023-02-06T16:47:27.295Z,4.08
2023-02-06T16:49:54.131Z,4.00
2023-02-06T16:52:31.486Z,3.91
2023-02-06T16:54:59.048Z,3.96
2023-02-06T16:57:36.500Z,4.04
2023-02-06T17:00:09.438Z,3.97
2023-02-06T17:02:36.700Z,3.97
2023-02-06T17:05:04.921Z,3.96
2023-02-06T17:07:34.909Z,3.97
2023-02-06T17:10:02.238Z,3.98
2023-02-06T17:12:30.376Z,3.70
2023-02-06T17:14:58.357Z,3.73
2023-02-06T17:17:25.275Z,3.67
2023-02-06T17:19:53.698Z,3.70
2023-02-06T17:22:20.721Z,3.74
2023-02-06T17:24:47.761Z,3.65
2023-02-06T17:27:19.047Z,3.65
2023-02-06T17:29:47.550Z,3.69
2023-02-06T17:32:16.143Z,3.66
2023-02-06T17:34:43.147Z,3.70
2023-02-06T17:37:20.389Z,3.66
2023-02-06T17:39:49.489Z,3.66
2023-02-06T17:42:16.446Z,3.64
2023-02-06T17:44:44.288Z,3.59
2023-02-06T17:47:13.108Z,3.60
2023-02-06T17:49:41.479Z,3.61
2023-02-06T17:52:08.410Z,3.58
2023-02-06T17:54:35.668Z,3.59
2023-02-06T17:57:02.621Z,3.57
2023-02-06T17:59:29.455Z,3.56
2023-02-06T18:01:56.470Z,3.54
2023-02-06T18:04:24.565Z,3.54
2023-02-06T18:06:51.535Z,3.56
2023-02-06T18:09:18.518Z,3.60
2023-02-06T18:11:45.510Z,3.59
2023-02-06T18:14:12.629Z,3.39
2023-02-06T18:16:42.724Z,3.43
2023-02-06T18:19:10.545Z,3.47
2023-02-06T18:21:37.422Z,3.51
2023-02-06T18:24:05.439Z,3.51
2023-02-06T18:26:32.658Z,3.51
2023-02-06T18:29:03.678Z,3.52
2023-02-06T18:31:33.450Z,3.50
2023-02-06T18:34:03.885Z,3.50
2023-02-06T18:36:30.682Z,3.51
2023-02-06T18:38:57.698Z,3.50
2023-02-06T18:41:42.973Z,3.57
2023-02-06T18:44:11.217Z,3.59
2023-02-06T18:46:39.004Z,3.54
2023-02-06T18:49:06.636Z,3.46
2023-02-06T18:51:33.620Z,3.43
2023-02-06T18:54:03.713Z,3.35
2023-02-06T18:56:30.824Z,3.34
2023-02-06T18:58:57.704Z,3.29
2023-02-06T19:01:25.501Z,3.22
2023-02-06T19:03:53.541Z,3.18
2023-02-06T19:06:25.489Z,3.12
2023-02-06T19:08:52.300Z,2.91
2023-02-06T19:11:19.210Z,2.99
2023-02-06T19:13:46.261Z,2.90
2023-02-06T19:16:16.456Z,2.76
2023-02-06T19:18:47.602Z,2.71
2023-02-06T19:21:20.365Z,2.43
2023-02-06T19:23:58.950Z,2.52
2023-02-06T19:26:27.319Z,2.61
2023-02-06T19:28:54.214Z,2.62
2023-02-06T19:31:24.597Z,2.62
2023-02-06T19:33:54.640Z,2.55
2023-02-06T19:36:23.048Z,2.63
2023-02-06T19:38:57.327Z,2.58
2023-02-06T19:41:27.106Z,2.71
2023-02-06T19:43:56.115Z,2.73
2023-02-06T19:46:26.433Z,2.74
2023-02-06T19:48:54.770Z,2.79
2023-02-06T19:51:35.392Z,2.80
2023-02-06T19:54:02.818Z,2.59
2023-02-06T19:56:39.902Z,2.54
2023-02-06T19:59:17.895Z,2.66
2023-02-06T20:01:57.485Z,2.69
2023-02-06T20:04:29.721Z,2.50
2023-02-06T20:06:56.663Z,2.41
2023-02-06T20:09:24.764Z,2.56
2023-02-06T20:11:51.846Z,2.48
2023-02-06T20:14:19.907Z,2.28
2023-02-06T20:16:47.674Z,2.28
2023-02-06T20:19:18.999Z,2.34
2023-02-06T20:21:50.889Z,2.20
2023-02-06T20:24:24.008Z,2.01
2023-02-06T20:26:55.998Z,1.98
2023-02-06T20:29:33.780Z,1.92
2023-02-06T20:32:01.152Z,1.79
2023-02-06T20:34:28.774Z,1.71
2023-02-06T20:36:56.716Z,1.56
2023-02-06T20:39:24.317Z,1.56
2023-02-06T20:41:51.495Z,1.51
2023-02-06T20:44:20.764Z,1.44
2023-02-06T20:46:48.470Z,1.44
2023-02-06T20:49:27.384Z,1.31
2023-02-06T20:51:54.886Z,1.38
2023-02-06T20:54:22.605Z,1.36
2023-02-06T20:56:49.938Z,1.37
2023-02-06T20:59:19.852Z,1.35
2023-02-06T21:01:46.902Z,1.27
2023-02-06T21:04:15.385Z,1.25
2023-02-06T21:06:43.217Z,1.12
2023-02-06T21:09:11.676Z,1.09
2023-02-06T21:11:45.727Z,1.13
2023-02-06T21:14:13.677Z,1.08
2023-02-06T21:16:40.714Z,1.07
2023-02-06T21:19:10.119Z,1.03
2023-02-06T21:21:37.705Z,1.18
2023-02-06T21:24:05.365Z,1.06
2023-02-06T21:26:33.135Z,1.11
2023-02-06T21:29:02.435Z,1.08
2023-02-06T21:31:37.790Z,1.15
2023-02-06T21:34:25.965Z,0.92
2023-02-06T21:36:54.542Z,0.88
2023-02-06T21:39:26.790Z,0.76
2023-02-06T21:41:54.768Z,0.62
2023-02-06T21:44:24.121Z,0.67
2023-02-06T21:46:51.852Z,0.70
2023-02-06T21:49:19.562Z,0.68
2023-02-06T21:51:46.344Z,0.58
2023-02-06T21:54:13.229Z,0.62
2023-02-06T21:56:40.027Z,0.56
2023-02-06T21:59:07.646Z,0.54
2023-02-06T22:01:34.899Z,0.49
2023-02-06T22:04:03.590Z,0.47
2023-02-06T22:06:30.666Z,0.38
2023-02-06T22:09:05.099Z,0.32
2023-02-06T22:11:32.211Z,0.31
2023-02-06T22:14:06.794Z,0.25
2023-02-06T22:16:34.185Z,0.24
2023-02-06T22:19:00.975Z,0.11
2023-02-06T22:21:30.859Z,0.29
2023-02-06T22:24:04.471Z,0.29
2023-02-06T22:26:33.098Z,0.24
2023-02-06T22:29:00.599Z,0.16
2023-02-06T22:31:32.740Z,0.08
2023-02-06T22:34:00.688Z,-0.01
2023-02-06T22:36:31.184Z,-0.04
2023-02-06T22:39:01.952Z,-0.12
2023-02-06T22:41:29.648Z,-0.13
2023-02-06T22:43:56.588Z,-0.11
2023-02-06T22:46:34.346Z,-0.14
2023-02-06T22:49:01.573Z,-0.18
2023-02-06T22:51:29.065Z,-0.20
2023-02-06T22:53:56.344Z,-0.20
2023-02-06T22:56:35.960Z,-0.20
2023-02-06T22:59:16.771Z,-0.17
2023-02-06T23:01:44.942Z,-0.17
2023-02-06T23:04:25.070Z,-0.14
2023-02-06T23:06:52.854Z,-0.08
2023-02-06T23:09:26.539Z,-0.14
2023-02-06T23:11:54.583Z,-0.28
2023-02-06T23:14:21.705Z,-0.14
2023-02-06T23:16:48.891Z,-0.16
2023-02-06T23:19:17.426Z,-0.23
2023-02-06T23:21:47.963Z,-0.16
2023-02-06T23:24:15.503Z,-0.09
2023-02-06T23:26:45.046Z,-0.12
2023-02-06T23:29:15.807Z,-0.20
2023-02-06T23:31:43.911Z,-0.24
2023-02-06T23:34:11.151Z,-0.14
2023-02-06T23:36:37.952Z,-0.20
2023-02-06T23:39:05.980Z,-0.06
2023-02-06T23:41:33.611Z,-0.20
2023-02-06T23:44:06.876Z,-0.26
2023-02-06T23:46:36.344Z,-0.13
2023-02-06T23:49:04.038Z,-0.15
2023-02-06T23:51:32.005Z,-0.15
2023-02-06T23:53:59.132Z,-0.12
2023-02-06T23:56:29.090Z,-0.14
2023-02-06T23:58:57.854Z,-0.13
